Portland, OR (97225)

4:54 AM PST on December 05, 2016 (GMT -0800)
TinyHouse (82nd and Prescott) | | Change Station
Active Advisory: Winter Weather Advisory

Elev 348 ft 45.50 °N, 122.77 °W | Updated 543 days ago

Snow
Snow
36 °F
Feels Like 29 °F
N
9
Wind Variable Wind from South
Gusts mph

Today
High -- | Low -- °F
--% Chance of Precip.
Yesterday
High -- | Low -- °F
Precip. -- in
Pressure 30.22 in
Visibility 10.0 miles
Clouds Mostly Cloudy 4200 ft
Mostly Cloudy 4800 ft
Overcast 7000 ft
Windchill 29 °F
Dew Point 34 °F
Humidity 92%
Rainfall in
Snow Depth Not available.
7:35 AM 4:27 PM
Waxing Crescent, 31% visible
METAR KHIO 051153Z AUTO 15003KT 10SM BKN042 BKN048 OVC070 02/01 A3021 RMK AO2 RAE36UPB1057E00 SLP233 P0001 60003 70021 T00170006 10022 20006 58009
Pressure 30.22 in
Visibility 10.0 miles
Clouds Mostly Cloudy 4200 ft
Mostly Cloudy 4800 ft
Overcast 7000 ft
Windchill 29 °F
Dew Point 34 °F
Humidity 92%
Rainfall in
Snow Depth Not available.
7:35 AM 4:27 PM
Waxing Crescent, 31% visible
METAR KHIO 051153Z AUTO 15003KT 10SM BKN042 BKN048 OVC070 02/01 A3021 RMK AO2 RAE36UPB1057E00 SLP233 P0001 60003 70021 T00170006 10022 20006 58009

10-Day Weather Forecast

Almanac

Astronomy

Dec. 05, 2016 Rise Set
Actual Time
Civil Twilight
Nautical Twilight
Astronomical Twilight
Moon
Length of Visible Light
Length of Day
Tomorrow will be .
, % of the Moon is Illuminated

Today's Extremes

State Highs State Lows

Community

WunderPhotos

Upload Photos

1,955,778 photos uploaded!

WunderBlog® & News

Nearby

Air Quality

  Air Quality AQ Index Pollutant
Not available.

Snow Depth

Station Depth Elevation

Earthquake Activity

City Distance Mag. Time & Date
Minimum magnitude displayed is 2.5.

Coastal Water Temperatures

Place Temperature

Stations

Nearby Weather Stations

Station Location Temp. Windchill Dew Point Humidity Wind Precip. Elev Updated Type
                   

Watches & Warnings

Winter Weather Advisory
Issued: 3:40 AM PST Dec. 5, 2016 – National Weather Service

... Winter Weather Advisory remains in effect for the greater
Portland and Vancouver Metro area until 1 PM PST this
afternoon...

A Winter Weather Advisory for snow remains in effect until 1 PM
PST this afternoon.

* Timing... snow showers continuing until early afternoon.

* Accumulation... 1 to 4 inches... mainly above 750 feet. Any
accumulations below 750 feet an inch or less.

* Impacts... the best chance for persistent snow will occur
during the morning commute. There is uncertainty whether snow
will stick to Road surfaces... but even falling snow may
result in travel delays or accidents. If you must drive
during this time... provide extra time for travel and
maintain space between vehicles.

Precautionary/preparedness actions...

A Winter Weather Advisory for snow means that periods of snow
will cause primarily travel difficulties. Be prepared for snow
covered roads and limited visibilities... and use caution while
driving.